sensor_id;sensor_type;location;lat;lon;timestamp;pressure;altitude;pressure_sealevel;temperature
41654;BMP280;30790;52.030;7.110;2023-03-14T00:01:49;98240.41;;;20.84
41654;BMP280;30790;52.030;7.110;2023-03-14T00:04:15;98238.00;;;20.82
41654;BMP280;30790;52.030;7.110;2023-03-14T00:06:40;98242.63;;;20.82
41654;BMP280;30790;52.030;7.110;2023-03-14T00:09:05;98229.50;;;20.84
41654;BMP280;30790;52.030;7.110;2023-03-14T00:11:31;98208.91;;;20.78
41654;BMP280;30790;52.030;7.110;2023-03-14T00:13:56;98217.56;;;20.80
41654;BMP280;30790;52.030;7.110;2023-03-14T00:16:22;98222.22;;;20.79
41654;BMP280;30790;52.030;7.110;2023-03-14T00:18:47;98218.69;;;20.79
41654;BMP280;30790;52.030;7.110;2023-03-14T00:21:13;98201.34;;;20.75
41654;BMP280;30790;52.030;7.110;2023-03-14T00:23:40;98222.53;;;20.78
41654;BMP280;30790;52.030;7.110;2023-03-14T00:26:16;98218.19;;;20.77
41654;BMP280;30790;52.030;7.110;2023-03-14T00:28:43;98205.19;;;20.74
41654;BMP280;30790;52.030;7.110;2023-03-14T00:31:10;98198.63;;;20.75
41654;BMP280;30790;52.030;7.110;2023-03-14T00:33:36;98210.13;;;20.72
41654;BMP280;30790;52.030;7.110;2023-03-14T00:36:08;98188.34;;;20.72
41654;BMP280;30790;52.030;7.110;2023-03-14T00:38:35;98179.66;;;20.70
41654;BMP280;30790;52.030;7.110;2023-03-14T00:41:08;98150.47;;;20.70
41654;BMP280;30790;52.030;7.110;2023-03-14T00:43:34;98129.28;;;20.67
41654;BMP280;30790;52.030;7.110;2023-03-14T00:46:00;98141.00;;;20.67
41654;BMP280;30790;52.030;7.110;2023-03-14T00:48:25;98133.13;;;20.66
41654;BMP280;30790;52.030;7.110;2023-03-14T00:50:50;98135.06;;;20.65
41654;BMP280;30790;52.030;7.110;2023-03-14T00:53:16;98141.00;;;20.67
41654;BMP280;30790;52.030;7.110;2023-03-14T00:55:42;98142.13;;;20.66
41654;BMP280;30790;52.030;7.110;2023-03-14T00:58:09;98150.28;;;20.66
41654;BMP280;30790;52.030;7.110;2023-03-14T01:00:35;98161.19;;;20.66
41654;BMP280;30790;52.030;7.110;2023-03-14T01:03:01;98166.97;;;20.65
41654;BMP280;30790;52.030;7.110;2023-03-14T01:05:26;98164.06;;;20.61
41654;BMP280;30790;52.030;7.110;2023-03-14T01:07:52;98166.28;;;20.59
41654;BMP280;30790;52.030;7.110;2023-03-14T01:10:17;98156.38;;;20.63
41654;BMP280;30790;52.030;7.110;2023-03-14T01:12:42;98149.13;;;20.59
41654;BMP280;30790;52.030;7.110;2023-03-14T01:15:08;98155.88;;;20.61
41654;BMP280;30790;52.030;7.110;2023-03-14T01:17:34;98149.94;;;20.59
41654;BMP280;30790;52.030;7.110;2023-03-14T01:20:00;98148.00;;;20.60
41654;BMP280;30790;52.030;7.110;2023-03-14T01:22:26;98154.88;;;20.57
41654;BMP280;30790;52.030;7.110;2023-03-14T01:24:51;98160.66;;;20.56
41654;BMP280;30790;52.030;7.110;2023-03-14T01:27:16;98161.44;;;20.56
41654;BMP280;30790;52.030;7.110;2023-03-14T01:29:42;98160.34;;;20.57
41654;BMP280;30790;52.030;7.110;2023-03-14T01:32:07;98152.75;;;20.54
41654;BMP280;30790;52.030;7.110;2023-03-14T01:34:32;98162.84;;;20.54
41654;BMP280;30790;52.030;7.110;2023-03-14T01:36:57;98166.38;;;20.54
41654;BMP280;30790;52.030;7.110;2023-03-14T01:39:23;98164.28;;;20.51
41654;BMP280;30790;52.030;7.110;2023-03-14T01:41:48;98169.09;;;20.54
41654;BMP280;30790;52.030;7.110;2023-03-14T01:44:13;98168.59;;;20.52
41654;BMP280;30790;52.030;7.110;2023-03-14T01:46:48;98161.22;;;20.53
41654;BMP280;30790;52.030;7.110;2023-03-14T01:52:16;98163.47;;;20.51
41654;BMP280;30790;52.030;7.110;2023-03-14T01:54:44;98164.28;;;20.51
41654;BMP280;30790;52.030;7.110;2023-03-14T01:57:19;98155.59;;;20.49
41654;BMP280;30790;52.030;7.110;2023-03-14T01:59:51;98146.31;;;20.50
41654;BMP280;30790;52.030;7.110;2023-03-14T02:02:18;98156.72;;;20.48
41654;BMP280;30790;52.030;7.110;2023-03-14T02:04:43;98151.25;;;20.48
41654;BMP280;30790;52.030;7.110;2023-03-14T02:09:38;98147.72;;;20.48
41654;BMP280;30790;52.030;7.110;2023-03-14T02:12:04;98138.75;;;20.47
41654;BMP280;30790;52.030;7.110;2023-03-14T02:14:32;98150.28;;;20.44
41654;BMP280;30790;52.030;7.110;2023-03-14T02:16:58;98146.44;;;20.45
41654;BMP280;30790;52.030;7.110;2023-03-14T02:19:40;98138.88;;;20.42
41654;BMP280;30790;52.030;7.110;2023-03-14T02:22:11;98148.34;;;20.45
41654;BMP280;30790;52.030;7.110;2023-03-14T02:24:49;98149.78;;;20.42
41654;BMP280;30790;52.030;7.110;2023-03-14T02:27:20;98136.97;;;20.43
41654;BMP280;30790;52.030;7.110;2023-03-14T02:30:05;98144.00;;;20.44
41654;BMP280;30790;52.030;7.110;2023-03-14T02:32:33;98137.25;;;20.41
41654;BMP280;30790;52.030;7.110;2023-03-14T02:35:03;98132.94;;;20.40
41654;BMP280;30790;52.030;7.110;2023-03-14T02:37:41;98134.53;;;20.41
41654;BMP280;30790;52.030;7.110;2023-03-14T02:40:09;98140.00;;;20.41
41654;BMP280;30790;52.030;7.110;2023-03-14T02:42:35;98137.84;;;20.38
41654;BMP280;30790;52.030;7.110;2023-03-14T02:47:37;98154.72;;;20.40
41654;BMP280;30790;52.030;7.110;2023-03-14T02:50:09;98155.00;;;20.38
41654;BMP280;30790;52.030;7.110;2023-03-14T02:52:37;98152.00;;;20.40
41654;BMP280;30790;52.030;7.110;2023-03-14T02:55:02;98153.41;;;20.37
41654;BMP280;30790;52.030;7.110;2023-03-14T02:57:29;98149.06;;;20.36
41654;BMP280;30790;52.030;7.110;2023-03-14T02:59:58;98145.22;;;20.37
41654;BMP280;30790;52.030;7.110;2023-03-14T03:02:23;98142.31;;;20.34
41654;BMP280;30790;52.030;7.110;2023-03-14T03:04:49;98147.44;;;20.35
41654;BMP280;30790;52.030;7.110;2023-03-14T03:07:14;98148.25;;;20.36
41654;BMP280;30790;52.030;7.110;2023-03-14T03:09:39;98143.72;;;20.31
41654;BMP280;30790;52.030;7.110;2023-03-14T03:12:04;98147.44;;;20.35
41654;BMP280;30790;52.030;7.110;2023-03-14T03:14:30;98145.34;;;20.32
41654;BMP280;30790;52.030;7.110;2023-03-14T03:16:55;98149.69;;;20.33
41654;BMP280;30790;52.030;7.110;2023-03-14T03:19:20;98144.53;;;20.32
41654;BMP280;30790;52.030;7.110;2023-03-14T03:21:46;98125.28;;;20.28
41654;BMP280;30790;52.030;7.110;2023-03-14T03:24:11;98134.75;;;20.31
41654;BMP280;30790;52.030;7.110;2023-03-14T03:26:36;98140.69;;;20.33
41654;BMP280;30790;52.030;7.110;2023-03-14T03:29:02;98141.81;;;20.32
41654;BMP280;30790;52.030;7.110;2023-03-14T03:31:28;98132.66;;;20.28
41654;BMP280;30790;52.030;7.110;2023-03-14T03:33:53;98135.88;;;20.30
41654;BMP280;30790;52.030;7.110;2023-03-14T03:36:23;98134.75;;;20.31
41654;BMP280;30790;52.030;7.110;2023-03-14T03:38:48;98137.47;;;20.31
41654;BMP280;30790;52.030;7.110;2023-03-14T03:41:14;98138.59;;;20.30
41654;BMP280;30790;52.030;7.110;2023-03-14T03:43:39;98131.00;;;20.27
41654;BMP280;30790;52.030;7.110;2023-03-14T03:46:05;98125.56;;;20.27
41654;BMP280;30790;52.030;7.110;2023-03-14T03:48:31;98127.28;;;20.23
41654;BMP280;30790;52.030;7.110;2023-03-14T03:50:56;98140.28;;;20.26
41654;BMP280;30790;52.030;7.110;2023-03-14T03:53:22;98134.84;;;20.26
41654;BMP280;30790;52.030;7.110;2023-03-14T03:55:47;98135.66;;;20.26
41654;BMP280;30790;52.030;7.110;2023-03-14T03:58:12;98139.50;;;20.25
41654;BMP280;30790;52.030;7.110;2023-03-14T04:00:38;98139.81;;;20.24
41654;BMP280;30790;52.030;7.110;2023-03-14T04:03:04;98138.38;;;20.26
41654;BMP280;30790;52.030;7.110;2023-03-14T04:05:29;98138.38;;;20.26
41654;BMP280;30790;52.030;7.110;2023-03-14T04:07:55;98142.22;;;20.25
41654;BMP280;30790;52.030;7.110;2023-03-14T04:10:20;98145.75;;;20.26
41654;BMP280;30790;52.030;7.110;2023-03-14T04:12:45;98139.81;;;20.24
41654;BMP280;30790;52.030;7.110;2023-03-14T04:15:10;98143.13;;;20.21
41654;BMP280;30790;52.030;7.110;2023-03-14T04:17:36;98153.41;;;20.24
41654;BMP280;30790;52.030;7.110;2023-03-14T04:20:01;98146.34;;;20.23
41654;BMP280;30790;52.030;7.110;2023-03-14T04:22:28;98142.34;;;20.20
41654;BMP280;30790;52.030;7.110;2023-03-14T04:24:53;98135.47;;;20.23
41654;BMP280;30790;52.030;7.110;2023-03-14T04:27:18;98137.19;;;20.19
41654;BMP280;30790;52.030;7.110;2023-03-14T04:29:43;98126.31;;;20.19
41654;BMP280;30790;52.030;7.110;2023-03-14T04:32:09;98121.97;;;20.18
41654;BMP280;30790;52.030;7.110;2023-03-14T04:34:34;98120.03;;;20.18
41654;BMP280;30790;52.030;7.110;2023-03-14T04:36:59;98127.91;;;20.20
41654;BMP280;30790;52.030;7.110;2023-03-14T04:39:25;98119.75;;;20.20
41654;BMP280;30790;52.030;7.110;2023-03-14T04:41:50;98115.41;;;20.19
41654;BMP280;30790;52.030;7.110;2023-03-14T04:44:15;98120.34;;;20.17
41654;BMP280;30790;52.030;7.110;2023-03-14T04:46:40;98115.41;;;20.19
41654;BMP280;30790;52.030;7.110;2023-03-14T04:49:06;98110.44;;;20.21
41654;BMP280;30790;52.030;7.110;2023-03-14T04:51:31;98098.44;;;20.22
41654;BMP280;30790;52.030;7.110;2023-03-14T04:53:56;98106.81;;;20.25
41654;BMP280;30790;52.030;7.110;2023-03-14T04:56:22;98100.75;;;20.28
41654;BMP280;30790;52.030;7.110;2023-03-14T04:58:47;98095.00;;;20.30
41654;BMP280;30790;52.030;7.110;2023-03-14T05:01:12;98086.72;;;20.35
41654;BMP280;30790;52.030;7.110;2023-03-14T05:03:38;98087.41;;;20.41
41654;BMP280;30790;52.030;7.110;2023-03-14T05:06:04;98104.13;;;20.48
41654;BMP280;30790;52.030;7.110;2023-03-14T05:08:29;98091.81;;;20.50
41654;BMP280;30790;52.030;7.110;2023-03-14T05:10:56;98089.09;;;20.50
41654;BMP280;30790;52.030;7.110;2023-03-14T05:13:22;98082.50;;;20.51
41654;BMP280;30790;52.030;7.110;2023-03-14T05:15:47;98088.97;;;20.55
41654;BMP280;30790;52.030;7.110;2023-03-14T05:18:12;98077.78;;;20.57
41654;BMP280;30790;52.030;7.110;2023-03-14T05:20:37;98079.69;;;20.56
41654;BMP280;30790;52.030;7.110;2023-03-14T05:23:03;98079.69;;;20.56
41654;BMP280;30790;52.030;7.110;2023-03-14T05:25:28;98073.78;;;20.63
41654;BMP280;30790;52.030;7.110;2023-03-14T05:27:54;98075.41;;;20.64
41654;BMP280;30790;52.030;7.110;2023-03-14T05:30:20;98081.66;;;20.64
41654;BMP280;30790;52.030;7.110;2023-03-14T05:32:46;98070.13;;;20.67
41654;BMP280;30790;52.030;7.110;2023-03-14T05:35:12;98065.00;;;20.66
41654;BMP280;30790;52.030;7.110;2023-03-14T05:37:37;98065.78;;;20.66
41654;BMP280;30790;52.030;7.110;2023-03-14T05:40:03;98057.78;;;20.70
41654;BMP280;30790;52.030;7.110;2023-03-14T05:42:31;98068.69;;;20.70
41654;BMP280;30790;52.030;7.110;2023-03-14T05:44:56;98068.38;;;20.72
41654;BMP280;30790;52.030;7.110;2023-03-14T05:47:22;98068.69;;;20.70
41654;BMP280;30790;52.030;7.110;2023-03-14T05:49:47;98073.34;;;20.70
41654;BMP280;30790;52.030;7.110;2023-03-14T05:52:13;98078.97;;;20.73
41654;BMP280;30790;52.030;7.110;2023-03-14T05:54:39;98086.34;;;20.73
41654;BMP280;30790;52.030;7.110;2023-03-14T05:57:04;98079.16;;;20.77
41654;BMP280;30790;52.030;7.110;2023-03-14T05:59:29;98075.94;;;20.75
41654;BMP280;30790;52.030;7.110;2023-03-14T06:01:54;98076.75;;;20.75
41654;BMP280;30790;52.030;7.110;2023-03-14T06:04:20;98067.94;;;20.78
41654;BMP280;30790;52.030;7.110;2023-03-14T06:06:45;98063.91;;;20.76
41654;BMP280;30790;52.030;7.110;2023-03-14T06:09:10;98065.69;;;20.80
41654;BMP280;30790;52.030;7.110;2023-03-14T06:11:36;98070.03;;;20.81
41654;BMP280;30790;52.030;7.110;2023-03-14T06:14:01;98066.22;;;20.82
41654;BMP280;30790;52.030;7.110;2023-03-14T06:16:26;98069.13;;;20.86
41654;BMP280;30790;52.030;7.110;2023-03-14T06:18:51;98066.41;;;20.86
41654;BMP280;30790;52.030;7.110;2023-03-14T06:21:17;98073.47;;;20.87
41654;BMP280;30790;52.030;7.110;2023-03-14T06:23:43;98070.88;;;20.82
41654;BMP280;30790;52.030;7.110;2023-03-14T06:26:08;98071.84;;;20.86
41654;BMP280;30790;52.030;7.110;2023-03-14T06:28:33;98073.78;;;20.85
41654;BMP280;30790;52.030;7.110;2023-03-14T06:30:59;98071.53;;;20.87
41654;BMP280;30790;52.030;7.110;2023-03-14T06:33:25;98072.84;;;20.90
41654;BMP280;30790;52.030;7.110;2023-03-14T06:35:51;98078.28;;;20.90
41654;BMP280;30790;52.030;7.110;2023-03-14T06:38:16;98071.53;;;20.87
41654;BMP280;30790;52.030;7.110;2023-03-14T06:40:41;98074.00;;;20.97
41654;BMP280;30790;52.030;7.110;2023-03-14T06:43:06;98075.19;;;21.14
41654;BMP280;30790;52.030;7.110;2023-03-14T06:45:32;98073.53;;;21.35
41654;BMP280;30790;52.030;7.110;2023-03-14T06:47:57;98069.25;;;21.43
41654;BMP280;30790;52.030;7.110;2023-03-14T06:50:22;98069.25;;;21.43
41654;BMP280;30790;52.030;7.110;2023-03-14T06:52:48;98080.31;;;21.46
41654;BMP280;30790;52.030;7.110;2023-03-14T06:55:14;98090.44;;;21.46
41654;BMP280;30790;52.030;7.110;2023-03-14T06:57:40;98094.91;;;21.42
41654;BMP280;30790;52.030;7.110;2023-03-14T07:00:06;98081.75;;;21.44
41654;BMP280;30790;52.030;7.110;2023-03-14T07:02:31;98086.59;;;21.47
41654;BMP280;30790;52.030;7.110;2023-03-14T07:04:56;98106.19;;;21.49
41654;BMP280;30790;52.030;7.110;2023-03-14T07:07:22;98084.81;;;21.51
41654;BMP280;30790;52.030;7.110;2023-03-14T07:09:47;98089.00;;;21.57
41654;BMP280;30790;52.030;7.110;2023-03-14T07:12:12;98096.13;;;21.67
41654;BMP280;30790;52.030;7.110;2023-03-14T07:14:38;98087.13;;;21.66
41654;BMP280;30790;52.030;7.110;2023-03-14T07:17:03;98087.31;;;21.70
41654;BMP280;30790;52.030;7.110;2023-03-14T07:19:28;98093.56;;;21.70
41654;BMP280;30790;52.030;7.110;2023-03-14T07:21:53;98087.31;;;21.70
41654;BMP280;30790;52.030;7.110;2023-03-14T07:24:19;98092.91;;;21.73
41654;BMP280;30790;52.030;7.110;2023-03-14T07:26:44;98094.69;;;21.69
41654;BMP280;30790;52.030;7.110;2023-03-14T07:29:09;98100.63;;;21.71
41654;BMP280;30790;52.030;7.110;2023-03-14T07:31:35;98100.31;;;21.73
41654;BMP280;30790;52.030;7.110;2023-03-14T07:34:00;98100.97;;;21.78
41654;BMP280;30790;52.030;7.110;2023-03-14T07:36:25;98107.53;;;21.77
41654;BMP280;30790;52.030;7.110;2023-03-14T07:38:51;98100.00;;;21.83
41654;BMP280;30790;52.030;7.110;2023-03-14T07:41:17;98109.47;;;21.85
41654;BMP280;30790;52.030;7.110;2023-03-14T07:43:42;98104.31;;;21.75
41654;BMP280;30790;52.030;7.110;2023-03-14T07:46:07;98102.72;;;21.74
41654;BMP280;30790;52.030;7.110;2023-03-14T07:48:33;98103.16;;;21.59
41654;BMP280;30790;52.030;7.110;2023-03-14T07:50:58;98111.13;;;20.26
41654;BMP280;30790;52.030;7.110;2023-03-14T07:53:23;98103.59;;;18.72
41654;BMP280;30790;52.030;7.110;2023-03-14T07:55:51;98107.53;;;18.10
41654;BMP280;30790;52.030;7.110;2023-03-14T07:58:16;98106.44;;;17.68
41654;BMP280;30790;52.030;7.110;2023-03-14T08:00:42;98103.34;;;18.17
41654;BMP280;30790;52.030;7.110;2023-03-14T08:03:08;98094.81;;;18.43
41654;BMP280;30790;52.030;7.110;2023-03-14T08:05:37;98090.50;;;19.62
41654;BMP280;30790;52.030;7.110;2023-03-14T08:08:03;98101.16;;;20.22
41654;BMP280;30790;52.030;7.110;2023-03-14T08:10:29;98094.53;;;20.50
41654;BMP280;30790;52.030;7.110;2023-03-14T08:12:56;98107.28;;;20.86
41654;BMP280;30790;52.030;7.110;2023-03-14T08:15:23;98109.75;;;20.96
41654;BMP280;30790;52.030;7.110;2023-03-14T08:17:48;98109.06;;;21.13
41654;BMP280;30790;52.030;7.110;2023-03-14T08:20:18;98105.22;;;21.22
41654;BMP280;30790;52.030;7.110;2023-03-14T08:22:43;98106.34;;;21.21
41654;BMP280;30790;52.030;7.110;2023-03-14T08:25:09;98108.16;;;21.26
41654;BMP280;30790;52.030;7.110;2023-03-14T08:27:34;98107.84;;;21.27
41654;BMP280;30790;52.030;7.110;2023-03-14T08:30:00;98108.06;;;21.40
41654;BMP280;30790;52.030;7.110;2023-03-14T08:32:25;98115.31;;;21.44
41654;BMP280;30790;52.030;7.110;2023-03-14T08:34:50;98116.47;;;21.52
41654;BMP280;30790;52.030;7.110;2023-03-14T08:37:15;98123.69;;;21.56
41654;BMP280;30790;52.030;7.110;2023-03-14T08:39:41;98110.09;;;21.65
41654;BMP280;30790;52.030;7.110;2023-03-14T08:42:06;98129.06;;;21.70
41654;BMP280;30790;52.030;7.110;2023-03-14T08:44:32;98136.59;;;21.73
41654;BMP280;30790;52.030;7.110;2023-03-14T08:46:57;98134.19;;;21.72
41654;BMP280;30790;52.030;7.110;2023-03-14T08:49:22;98148.81;;;21.76
41654;BMP280;30790;52.030;7.110;2023-03-14T08:51:48;98142.25;;;21.77
41654;BMP280;30790;52.030;7.110;2023-03-14T08:54:13;98153.97;;;21.77
41654;BMP280;30790;52.030;7.110;2023-03-14T08:56:38;98155.72;;;21.73
41654;BMP280;30790;52.030;7.110;2023-03-14T08:59:04;98175.81;;;21.77
41654;BMP280;30790;52.030;7.110;2023-03-14T09:01:30;98232.34;;;21.77
41654;BMP280;30790;52.030;7.110;2023-03-14T09:03:55;98237.63;;;21.73
41654;BMP280;30790;52.030;7.110;2023-03-14T09:06:20;98258.84;;;21.76
41654;BMP280;30790;52.030;7.110;2023-03-14T09:08:46;98252.41;;;21.72
41654;BMP280;30790;52.030;7.110;2023-03-14T09:11:11;98256.25;;;21.71
41654;BMP280;30790;52.030;7.110;2023-03-14T09:13:37;98270.56;;;21.77
41654;BMP280;30790;52.030;7.110;2023-03-14T09:16:03;98283.91;;;21.78
41654;BMP280;30790;52.030;7.110;2023-03-14T09:18:28;98277.47;;;21.74
41654;BMP280;30790;52.030;7.110;2023-03-14T09:20:55;98294.53;;;21.80
41654;BMP280;30790;52.030;7.110;2023-03-14T09:23:20;98296.28;;;21.76
41654;BMP280;30790;52.030;7.110;2023-03-14T09:25:46;98313.31;;;21.81
41654;BMP280;30790;52.030;7.110;2023-03-14T09:28:11;98310.41;;;21.78
41654;BMP280;30790;52.030;7.110;2023-03-14T09:30:37;98313.63;;;21.80
41654;BMP280;30790;52.030;7.110;2023-03-14T09:33:02;98325.69;;;21.79
41654;BMP280;30790;52.030;7.110;2023-03-14T09:35:27;98333.06;;;21.78
41654;BMP280;30790;52.030;7.110;2023-03-14T09:37:53;98348.81;;;21.81
41654;BMP280;30790;52.030;7.110;2023-03-14T09:40:19;98366.81;;;21.82
41654;BMP280;30790;52.030;7.110;2023-03-14T09:42:47;98379.34;;;21.83
41654;BMP280;30790;52.030;7.110;2023-03-14T09:45:26;98383.22;;;21.82
41654;BMP280;30790;52.030;7.110;2023-03-14T09:47:53;98394.94;;;21.83
41654;BMP280;30790;52.030;7.110;2023-03-14T09:50:19;98412.13;;;21.83
41654;BMP280;30790;52.030;7.110;2023-03-14T09:52:48;98437.03;;;21.82
41654;BMP280;30790;52.030;7.110;2023-03-14T09:55:17;98451.00;;;21.80
41654;BMP280;30790;52.030;7.110;2023-03-14T09:57:44;98465.75;;;21.79
41654;BMP280;30790;52.030;7.110;2023-03-14T10:00:21;98469.59;;;21.78
41654;BMP280;30790;52.030;7.110;2023-03-14T10:02:56;98486.00;;;21.78
41654;BMP280;30790;52.030;7.110;2023-03-14T10:05:24;98500.75;;;21.77
41654;BMP280;30790;52.030;7.110;2023-03-14T10:07:49;98521.50;;;21.78
41654;BMP280;30790;52.030;7.110;2023-03-14T10:10:20;98541.72;;;21.77
41654;BMP280;30790;52.030;7.110;2023-03-14T10:12:49;98551.53;;;21.78
41654;BMP280;30790;52.030;7.110;2023-03-14T10:15:25;98564.88;;;21.80
41654;BMP280;30790;52.030;7.110;2023-03-14T10:17:51;98578.34;;;21.76
41654;BMP280;30790;52.030;7.110;2023-03-14T10:20:33;98604.72;;;21.81
41654;BMP280;30790;52.030;7.110;2023-03-14T10:23:06;98617.88;;;21.79
41654;BMP280;30790;52.030;7.110;2023-03-14T10:25:34;98635.38;;;21.78
41654;BMP280;30790;52.030;7.110;2023-03-14T10:28:00;98640.53;;;21.79
41654;BMP280;30790;52.030;7.110;2023-03-14T10:30:30;98649.84;;;21.78
41654;BMP280;30790;52.030;7.110;2023-03-14T10:32:55;98666.84;;;21.75
41654;BMP280;30790;52.030;7.110;2023-03-14T10:35:22;98673.13;;;21.76
41654;BMP280;30790;52.030;7.110;2023-03-14T10:37:53;98683.84;;;21.72
41654;BMP280;30790;52.030;7.110;2023-03-14T10:40:23;98701.22;;;21.76
41654;BMP280;30790;52.030;7.110;2023-03-14T10:42:50;98723.06;;;21.76
41654;BMP280;30790;52.030;7.110;2023-03-14T10:45:31;98729.56;;;21.80
41654;BMP280;30790;52.030;7.110;2023-03-14T10:48:05;98733.97;;;21.49
41654;BMP280;30790;52.030;7.110;2023-03-14T10:50:31;98753.38;;;21.61
41654;BMP280;30790;52.030;7.110;2023-03-14T10:53:01;98758.56;;;21.63
41654;BMP280;30790;52.030;7.110;2023-03-14T10:55:40;98772.59;;;21.56
41654;BMP280;30790;52.030;7.110;2023-03-14T10:58:18;98770.16;;;21.54
41654;BMP280;30790;52.030;7.110;2023-03-14T11:00:47;98785.94;;;21.57
41654;BMP280;30790;52.030;7.110;2023-03-14T11:03:15;98788.47;;;21.54
41654;BMP280;30790;52.030;7.110;2023-03-14T11:05:51;98800.41;;;21.58
41654;BMP280;30790;52.030;7.110;2023-03-14T11:08:25;98808.38;;;21.54
41654;BMP280;30790;52.030;7.110;2023-03-14T11:11:06;98813.03;;;21.54
41654;BMP280;30790;52.030;7.110;2023-03-14T11:13:44;98813.25;;;21.57
41654;BMP280;30790;52.030;7.110;2023-03-14T11:16:31;98836.50;;;21.55
41654;BMP280;30790;52.030;7.110;2023-03-14T11:19:20;98835.47;;;21.51
41654;BMP280;30790;52.030;7.110;2023-03-14T11:21:56;98850.44;;;21.53
41654;BMP280;30790;52.030;7.110;2023-03-14T11:27:26;98872.28;;;21.53
41654;BMP280;30790;52.030;7.110;2023-03-14T11:30:00;98874.72;;;21.55
41654;BMP280;30790;52.030;7.110;2023-03-14T11:32:39;98886.84;;;21.49
41654;BMP280;30790;52.030;7.110;2023-03-14T11:35:33;98886.84;;;21.49
41654;BMP280;30790;52.030;7.110;2023-03-14T11:40:28;98898.78;;;21.53
41654;BMP280;30790;52.030;7.110;2023-03-14T11:43:16;98910.72;;;21.57
41654;BMP280;30790;52.030;7.110;2023-03-14T11:45:44;98930.34;;;21.59
41654;BMP280;30790;52.030;7.110;2023-03-14T11:48:13;98930.34;;;21.59
41654;BMP280;30790;52.030;7.110;2023-03-14T11:50:43;98942.28;;;21.63
41654;BMP280;30790;52.030;7.110;2023-03-14T11:53:13;98941.22;;;21.64
41654;BMP280;30790;52.030;7.110;2023-03-14T11:55:42;98965.25;;;21.62
41654;BMP280;30790;52.030;7.110;2023-03-14T11:58:17;98980.25;;;21.65
41654;BMP280;30790;52.030;7.110;2023-03-14T12:00:44;98992.25;;;21.64
41654;BMP280;30790;52.030;7.110;2023-03-14T12:03:22;98996.91;;;21.63
41654;BMP280;30790;52.030;7.110;2023-03-14T12:10:58;99020.09;;;21.66
41654;BMP280;30790;52.030;7.110;2023-03-14T12:13:29;99025.88;;;21.64
41654;BMP280;30790;52.030;7.110;2023-03-14T12:16:06;99024.28;;;21.58
41654;BMP280;30790;52.030;7.110;2023-03-14T12:18:38;99037.94;;;21.58
41654;BMP280;30790;52.030;7.110;2023-03-14T12:21:06;99053.22;;;21.59
41654;BMP280;30790;52.030;7.110;2023-03-14T12:23:51;99048.63;;;21.54
41654;BMP280;30790;52.030;7.110;2023-03-14T12:28:48;99063.84;;;21.60
41654;BMP280;30790;52.030;7.110;2023-03-14T12:36:54;99072.81;;;21.66
41654;BMP280;30790;52.030;7.110;2023-03-14T12:42:04;99086.69;;;21.70
41654;BMP280;30790;52.030;7.110;2023-03-14T12:49:44;99106.00;;;21.73
41654;BMP280;30790;52.030;7.110;2023-03-14T12:52:20;99114.50;;;21.72
41654;BMP280;30790;52.030;7.110;2023-03-14T12:55:06;99113.69;;;21.71
41654;BMP280;30790;52.030;7.110;2023-03-14T12:58:03;99121.59;;;21.73
41654;BMP280;30790;52.030;7.110;2023-03-14T13:00:32;99132.81;;;21.71
41654;BMP280;30790;52.030;7.110;2023-03-14T13:03:22;99150.31;;;21.70
41654;BMP280;30790;52.030;7.110;2023-03-14T13:05:59;99165.06;;;21.69
41654;BMP280;30790;52.030;7.110;2023-03-14T13:08:37;99165.59;;;21.71
41654;BMP280;30790;52.030;7.110;2023-03-14T13:11:24;99172.16;;;21.70
41654;BMP280;30790;52.030;7.110;2023-03-14T13:13:56;99189.66;;;21.69
41654;BMP280;30790;52.030;7.110;2023-03-14T13:16:22;99192.97;;;21.66
41654;BMP280;30790;52.030;7.110;2023-03-14T13:18:49;99198.66;;;21.70
41654;BMP280;30790;52.030;7.110;2023-03-14T13:21:25;99205.50;;;21.67
41654;BMP280;30790;52.030;7.110;2023-03-14T13:24:22;99221.06;;;21.67
41654;BMP280;30790;52.030;7.110;2023-03-14T13:26:48;99220.25;;;21.66
41654;BMP280;30790;52.030;7.110;2023-03-14T13:29:25;99229.00;;;21.63
41654;BMP280;30790;52.030;7.110;2023-03-14T13:31:53;99238.28;;;21.67
41654;BMP280;30790;52.030;7.110;2023-03-14T13:34:19;99253.03;;;21.66
41654;BMP280;30790;52.030;7.110;2023-03-14T13:36:45;99257.91;;;21.69
41654;BMP280;30790;52.030;7.110;2023-03-14T13:39:12;99266.63;;;21.71
41654;BMP280;30790;52.030;7.110;2023-03-14T13:41:39;99260.34;;;21.71
41654;BMP280;30790;52.030;7.110;2023-03-14T13:44:14;99268.78;;;21.74
41654;BMP280;30790;52.030;7.110;2023-03-14T13:46:41;99269.88;;;21.73
41654;BMP280;30790;52.030;7.110;2023-03-14T13:49:10;99273.88;;;21.81
41654;BMP280;30790;52.030;7.110;2023-03-14T13:51:39;99282.91;;;21.81
41654;BMP280;30790;52.030;7.110;2023-03-14T13:54:20;99293.81;;;21.81
41654;BMP280;30790;52.030;7.110;2023-03-14T13:56:46;99310.22;;;21.81
41654;BMP280;30790;52.030;7.110;2023-03-14T13:59:28;99313.22;;;21.80
41654;BMP280;30790;52.030;7.110;2023-03-14T14:01:54;99323.63;;;21.78
41654;BMP280;30790;52.030;7.110;2023-03-14T14:04:22;99322.00;;;21.77
41654;BMP280;30790;52.030;7.110;2023-03-14T14:06:57;99331.59;;;21.74
41654;BMP280;30790;52.030;7.110;2023-03-14T14:09:29;99334.28;;;21.79
41654;BMP280;30790;52.030;7.110;2023-03-14T14:14:28;99360.78;;;21.79
41654;BMP280;30790;52.030;7.110;2023-03-14T14:16:56;99367.88;;;21.80
41654;BMP280;30790;52.030;7.110;2023-03-14T14:19:25;99366.75;;;21.81
41654;BMP280;30790;52.030;7.110;2023-03-14T14:21:53;99373.56;;;21.83
41654;BMP280;30790;52.030;7.110;2023-03-14T14:24:21;99377.41;;;21.82
41654;BMP280;30790;52.030;7.110;2023-03-14T14:26:51;99386.94;;;21.85
41654;BMP280;30790;52.030;7.110;2023-03-14T14:29:27;99392.69;;;21.83
41654;BMP280;30790;52.030;7.110;2023-03-14T14:32:08;99392.41;;;21.85
41654;BMP280;30790;52.030;7.110;2023-03-14T14:35:05;99404.94;;;21.86
41654;BMP280;30790;52.030;7.110;2023-03-14T14:37:41;99413.66;;;21.88
41654;BMP280;30790;52.030;7.110;2023-03-14T14:40:10;99419.41;;;21.92
41654;BMP280;30790;52.030;7.110;2023-03-14T14:42:39;99431.66;;;21.94
41654;BMP280;30790;52.030;7.110;2023-03-14T14:45:09;99429.19;;;21.98
41654;BMP280;30790;52.030;7.110;2023-03-14T14:47:52;99436.28;;;21.99
41654;BMP280;30790;52.030;7.110;2023-03-14T14:53:00;99461.09;;;22.02
41654;BMP280;30790;52.030;7.110;2023-03-14T14:55:32;99466.56;;;22.02